createdAt,value
2022-11-29T00:01:34.538Z,6.14
2022-11-29T00:04:01.587Z,6.14
2022-11-29T00:06:31.249Z,6.14
2022-11-29T00:09:00.939Z,6.16
2022-11-29T00:11:49.545Z,6.19
2022-11-29T00:14:18.484Z,6.23
2022-11-29T00:16:45.415Z,6.18
2022-11-29T00:19:13.673Z,6.16
2022-11-29T00:21:40.308Z,6.13
2022-11-29T00:24:07.634Z,6.17
2022-11-29T00:26:34.274Z,6.19
2022-11-29T00:29:00.953Z,6.12
2022-11-29T00:31:33.459Z,6.09
2022-11-29T00:34:03.101Z,6.16
2022-11-29T00:36:30.141Z,6.17
2022-11-29T00:38:56.841Z,6.17
2022-11-29T00:41:23.435Z,6.18
2022-11-29T00:43:50.192Z,6.23
2022-11-29T00:46:17.346Z,6.29
2022-11-29T00:48:43.998Z,6.31
2022-11-29T00:51:11.093Z,6.32
2022-11-29T00:53:38.243Z,6.32
2022-11-29T00:56:06.094Z,6.35
2022-11-29T00:58:33.255Z,6.35
2022-11-29T01:01:00.544Z,6.28
2022-11-29T01:03:27.358Z,6.25
2022-11-29T01:06:08.257Z,6.28
2022-11-29T01:08:35.535Z,6.28
2022-11-29T01:11:24.273Z,6.23
2022-11-29T01:13:55.084Z,6.27
2022-11-29T01:16:22.188Z,6.28
2022-11-29T01:18:48.837Z,6.29
2022-11-29T01:21:18.763Z,6.32
2022-11-29T01:23:46.469Z,6.33
2022-11-29T01:26:26.038Z,6.28
2022-11-29T01:28:54.528Z,6.23
2022-11-29T01:31:24.097Z,6.24
2022-11-29T01:33:55.100Z,6.23
2022-11-29T01:36:22.199Z,6.21
2022-11-29T01:38:48.874Z,6.20
2022-11-29T01:41:18.956Z,6.26
2022-11-29T01:44:04.196Z,6.29
2022-11-29T01:46:33.310Z,6.23
2022-11-29T01:49:08.962Z,6.25
2022-11-29T01:51:38.947Z,6.26
2022-11-29T01:54:07.449Z,6.24
2022-11-29T01:56:35.242Z,6.25
2022-11-29T01:59:06.229Z,6.27
2022-11-29T02:01:34.701Z,6.23
2022-11-29T02:04:01.655Z,6.21
2022-11-29T02:06:29.919Z,6.15
2022-11-29T02:08:56.700Z,6.15
2022-11-29T02:11:32.406Z,6.09
2022-11-29T02:14:20.538Z,6.04
2022-11-29T02:16:47.661Z,6.04
2022-11-29T02:19:48.970Z,6.03
2022-11-29T02:22:24.670Z,6.03
2022-11-29T02:25:15.551Z,6.00
2022-11-29T02:28:09.388Z,5.98
2022-11-29T02:31:04.360Z,6.02
2022-11-29T02:34:08.118Z,6.01
2022-11-29T02:37:07.166Z,6.02
2022-11-29T02:39:54.829Z,5.97
2022-11-29T02:42:28.957Z,5.95
2022-11-29T02:45:14.639Z,5.93
2022-11-29T02:47:59.469Z,5.96
2022-11-29T02:50:41.496Z,5.96
2022-11-29T02:53:27.112Z,5.97
2022-11-29T02:56:20.825Z,5.86
2022-11-29T02:59:10.955Z,5.82
2022-11-29T03:02:02.360Z,5.76
2022-11-29T03:04:39.653Z,5.71
2022-11-29T03:07:21.234Z,5.69
2022-11-29T03:10:25.226Z,5.69
2022-11-29T03:12:54.411Z,5.59
2022-11-29T03:15:35.039Z,5.64
2022-11-29T03:18:13.822Z,5.63
2022-11-29T03:20:55.740Z,5.70
2022-11-29T03:23:33.319Z,5.69
2022-11-29T03:26:13.878Z,5.65
2022-11-29T03:28:52.777Z,5.66
2022-11-29T03:31:38.926Z,5.64
2022-11-29T03:34:25.402Z,5.58
2022-11-29T03:37:34.552Z,5.65
2022-11-29T03:40:10.969Z,5.59
2022-11-29T03:42:56.052Z,5.58
2022-11-29T03:45:29.137Z,5.60
2022-11-29T03:48:21.991Z,5.51
2022-11-29T03:50:56.729Z,5.51
2022-11-29T03:53:33.553Z,5.51
2022-11-29T03:56:01.236Z,5.43
2022-11-29T03:58:53.285Z,5.26
2022-11-29T04:01:32.108Z,5.31
2022-11-29T04:04:26.217Z,5.40
2022-11-29T04:07:11.620Z,5.38
2022-11-29T04:10:04.235Z,5.39
2022-11-29T04:13:00.974Z,5.41
2022-11-29T04:15:46.391Z,5.40
2022-11-29T04:18:31.253Z,5.34
2022-11-29T04:21:22.606Z,5.35
2022-11-29T04:23:57.714Z,5.32
2022-11-29T04:26:24.261Z,5.33
2022-11-29T04:29:11.995Z,5.31
2022-11-29T04:32:13.946Z,5.30
2022-11-29T04:35:02.409Z,5.29
2022-11-29T04:37:37.793Z,5.37
2022-11-29T04:40:58.132Z,5.36
2022-11-29T04:43:52.447Z,5.40
2022-11-29T04:46:31.919Z,5.41
2022-11-29T04:49:16.557Z,5.39
2022-11-29T04:52:03.371Z,5.35
2022-11-29T04:55:04.471Z,5.41
2022-11-29T04:57:57.824Z,5.38
2022-11-29T05:00:25.236Z,5.33
2022-11-29T05:03:11.918Z,5.35
2022-11-29T05:05:53.315Z,5.42
2022-11-29T05:08:45.286Z,5.37
2022-11-29T05:11:44.571Z,5.38
2022-11-29T05:14:24.167Z,5.32
2022-11-29T05:16:54.565Z,5.32
2022-11-29T05:20:03.849Z,5.33
2022-11-29T05:22:44.211Z,5.24
2022-11-29T05:25:37.326Z,5.31
2022-11-29T05:28:14.701Z,5.18
2022-11-29T05:30:47.561Z,5.20
2022-11-29T05:33:49.635Z,4.99
2022-11-29T05:36:40.010Z,5.08
2022-11-29T05:39:31.030Z,5.12
2022-11-29T05:42:45.958Z,5.18
2022-11-29T05:45:27.214Z,5.18
2022-11-29T05:48:04.637Z,5.16
2022-11-29T05:50:42.521Z,5.16
2022-11-29T05:53:28.393Z,5.08
2022-11-29T05:56:05.506Z,5.18
2022-11-29T05:58:40.967Z,5.21
2022-11-29T06:01:18.861Z,5.18
2022-11-29T06:04:14.758Z,5.12
2022-11-29T06:06:49.485Z,5.18
2022-11-29T06:09:33.847Z,5.08
2022-11-29T06:12:06.842Z,5.15
2022-11-29T06:15:17.836Z,5.14
2022-11-29T06:18:03.277Z,5.09
2022-11-29T06:20:41.670Z,5.11
2022-11-29T06:23:52.667Z,5.11
2022-11-29T06:26:37.738Z,5.12
2022-11-29T06:29:39.425Z,5.00
2022-11-29T06:32:37.481Z,5.05
2022-11-29T06:35:11.306Z,5.04
2022-11-29T06:37:47.223Z,5.01
2022-11-29T06:40:16.017Z,5.03
2022-11-29T06:42:43.134Z,5.06
2022-11-29T06:45:15.355Z,5.04
2022-11-29T06:47:52.058Z,5.02
2022-11-29T06:50:29.205Z,5.05
2022-11-29T06:53:01.983Z,5.06
2022-11-29T06:55:37.227Z,5.09
2022-11-29T06:58:15.984Z,5.13
2022-11-29T07:00:54.631Z,5.18
2022-11-29T07:03:41.958Z,5.12
2022-11-29T07:06:16.480Z,5.09
2022-11-29T07:08:43.587Z,5.18
2022-11-29T07:11:13.510Z,5.12
2022-11-29T07:13:40.434Z,5.09
2022-11-29T07:16:14.732Z,5.12
2022-11-29T07:18:59.956Z,5.12
2022-11-29T07:21:53.317Z,5.17
2022-11-29T07:24:44.004Z,5.19
2022-11-29T07:27:21.279Z,5.19
2022-11-29T07:30:07.508Z,5.21
2022-11-29T07:32:50.773Z,5.20
2022-11-29T07:35:38.548Z,5.21
2022-11-29T07:38:29.043Z,5.22
2022-11-29T07:41:31.191Z,5.29
2022-11-29T07:44:24.535Z,5.22
2022-11-29T07:46:51.282Z,5.28
2022-11-29T07:49:17.962Z,5.31
2022-11-29T07:51:44.975Z,5.33
2022-11-29T07:54:19.234Z,5.31
2022-11-29T07:56:46.112Z,5.31
2022-11-29T07:59:13.042Z,5.25
2022-11-29T08:01:40.784Z,5.20
2022-11-29T08:04:08.237Z,5.23
2022-11-29T08:06:35.875Z,5.31
2022-11-29T08:09:04.006Z,5.32
2022-11-29T08:11:30.651Z,5.40
2022-11-29T08:13:58.994Z,5.46
2022-11-29T08:16:25.864Z,5.45
2022-11-29T08:18:55.494Z,5.46
2022-11-29T08:21:23.008Z,5.45
2022-11-29T08:23:51.399Z,5.47
2022-11-29T08:26:19.962Z,5.50
2022-11-29T08:28:51.901Z,5.50
2022-11-29T08:31:19.799Z,5.54
2022-11-29T08:33:46.808Z,5.56
2022-11-29T08:36:16.175Z,5.58
2022-11-29T08:38:43.386Z,5.62
2022-11-29T08:41:12.926Z,5.63
2022-11-29T08:43:39.899Z,5.67
2022-11-29T08:46:07.071Z,5.69
2022-11-29T08:48:34.059Z,5.71
2022-11-29T08:51:00.701Z,5.75
2022-11-29T08:53:43.378Z,5.75
2022-11-29T08:59:04.461Z,5.78
2022-11-29T09:01:31.211Z,5.79
2022-11-29T09:04:03.095Z,5.80
2022-11-29T09:06:38.761Z,5.82
2022-11-29T09:09:05.763Z,5.85
2022-11-29T09:11:34.973Z,5.87
2022-11-29T09:14:05.325Z,5.92
2022-11-29T09:16:35.930Z,5.96
2022-11-29T09:19:03.622Z,6.01
2022-11-29T09:21:32.485Z,6.02
2022-11-29T09:24:01.141Z,6.00
2022-11-29T09:26:31.211Z,6.01
2022-11-29T09:29:03.956Z,6.07
2022-11-29T09:31:32.185Z,6.12
2022-11-29T09:33:58.949Z,6.13
2022-11-29T09:36:28.959Z,6.20
2022-11-29T09:39:02.654Z,6.19
2022-11-29T09:41:34.980Z,6.23
2022-11-29T09:44:35.194Z,6.25
2022-11-29T09:47:10.933Z,6.18
2022-11-29T09:49:37.587Z,6.11
2022-11-29T09:52:22.190Z,6.16
2022-11-29T09:55:14.566Z,6.23
2022-11-29T09:57:44.669Z,6.29
2022-11-29T10:00:17.129Z,6.31
2022-11-29T10:02:55.180Z,6.34
2022-11-29T10:05:43.092Z,6.37
2022-11-29T10:08:42.017Z,6.27
2022-11-29T10:11:21.541Z,6.26
2022-11-29T10:13:54.063Z,6.28
2022-11-29T10:16:20.732Z,6.32
2022-11-29T10:19:00.509Z,6.32
2022-11-29T10:21:37.662Z,6.31
2022-11-29T10:24:14.736Z,6.29
2022-11-29T10:26:43.517Z,6.34
2022-11-29T10:29:14.605Z,6.40
2022-11-29T10:31:44.365Z,6.35
2022-11-29T10:34:15.022Z,6.34
2022-11-29T10:36:47.374Z,6.39
2022-11-29T10:39:27.342Z,6.44
2022-11-29T10:41:56.896Z,6.50
2022-11-29T10:44:24.677Z,6.52
2022-11-29T10:46:52.442Z,6.53
2022-11-29T10:49:23.328Z,6.50
2022-11-29T10:51:49.978Z,6.51
2022-11-29T10:54:38.417Z,6.49
2022-11-29T10:57:15.725Z,6.50
2022-11-29T10:59:57.683Z,6.52
2022-11-29T11:02:24.595Z,6.52
2022-11-29T11:04:51.589Z,6.46
2022-11-29T11:07:33.225Z,6.37
2022-11-29T11:10:00.217Z,6.41
2022-11-29T11:12:32.427Z,6.48
2022-11-29T11:15:29.535Z,6.52
2022-11-29T11:18:05.919Z,6.53
2022-11-29T11:20:41.424Z,6.52
2022-11-29T11:23:24.788Z,6.49
2022-11-29T11:26:02.293Z,6.44
2022-11-29T11:28:59.638Z,6.40
2022-11-29T11:31:39.788Z,6.41
2022-11-29T11:34:25.549Z,6.42
2022-11-29T11:36:53.607Z,6.35
2022-11-29T11:39:22.714Z,6.39
2022-11-29T11:42:11.529Z,6.35
2022-11-29T11:44:50.086Z,6.25
2022-11-29T11:47:21.414Z,6.19
2022-11-29T11:50:00.259Z,6.21
2022-11-29T11:52:29.350Z,6.24
2022-11-29T11:55:02.096Z,6.35
2022-11-29T11:57:29.945Z,6.38
2022-11-29T12:00:03.429Z,6.41
2022-11-29T12:02:39.009Z,6.38
2022-11-29T12:05:13.322Z,6.41
2022-11-29T12:08:13.659Z,6.39
2022-11-29T12:10:41.477Z,6.42
2022-11-29T12:13:19.706Z,6.42
2022-11-29T12:15:49.995Z,6.37
2022-11-29T12:18:27.191Z,6.42
2022-11-29T12:21:13.437Z,6.46
2022-11-29T12:23:49.781Z,6.46
2022-11-29T12:29:30.139Z,6.46
2022-11-29T12:32:21.013Z,6.35
2022-11-29T12:35:19.035Z,6.34
2022-11-29T12:38:07.141Z,6.29
2022-11-29T12:40:59.898Z,6.36
2022-11-29T12:43:36.201Z,6.39
2022-11-29T12:46:24.602Z,6.43
2022-11-29T12:49:00.809Z,6.40
2022-11-29T12:51:52.523Z,6.42
2022-11-29T12:54:31.686Z,6.40
2022-11-29T12:57:08.081Z,6.32
2022-11-29T12:59:52.928Z,6.27
2022-11-29T13:02:41.514Z,6.26
2022-11-29T13:05:35.823Z,6.31
2022-11-29T13:08:05.238Z,6.32
2022-11-29T13:10:51.206Z,6.38
2022-11-29T13:13:37.577Z,6.38
2022-11-29T13:16:31.042Z,6.29
2022-11-29T13:19:17.212Z,6.21
2022-11-29T13:22:11.349Z,6.22
2022-11-29T13:24:42.862Z,6.16
2022-11-29T13:27:19.359Z,6.19
2022-11-29T13:29:47.431Z,6.21
2022-11-29T13:32:51.713Z,6.17
2022-11-29T13:35:21.865Z,6.20
2022-11-29T13:38:21.093Z,6.22
2022-11-29T13:41:26.020Z,6.21
2022-11-29T13:44:04.424Z,6.10
2022-11-29T13:46:43.553Z,6.08
2022-11-29T13:49:21.943Z,6.15
2022-11-29T13:51:49.748Z,6.13
2022-11-29T13:54:31.125Z,6.07
2022-11-29T13:57:06.910Z,6.10
2022-11-29T13:59:36.294Z,6.06
2022-11-29T14:02:04.383Z,6.08
2022-11-29T14:04:39.185Z,6.11
2022-11-29T14:07:05.724Z,6.07
2022-11-29T14:10:16.417Z,6.13
2022-11-29T14:12:54.249Z,6.10
2022-11-29T14:15:32.666Z,6.17
2022-11-29T14:18:08.393Z,6.12
2022-11-29T14:20:44.391Z,6.05
2022-11-29T14:23:17.760Z,5.97
2022-11-29T14:25:57.688Z,5.90
2022-11-29T14:28:24.270Z,5.91
2022-11-29T14:30:52.704Z,5.98
2022-11-29T14:33:41.228Z,5.90
2022-11-29T14:36:24.293Z,5.80
2022-11-29T14:39:22.685Z,5.80
2022-11-29T14:42:04.276Z,5.81
2022-11-29T14:44:43.180Z,5.82
2022-11-29T14:47:23.843Z,5.85
2022-11-29T14:49:52.965Z,5.85
2022-11-29T14:52:28.800Z,5.84
2022-11-29T14:55:00.856Z,5.78
2022-11-29T14:57:58.505Z,5.79
2022-11-29T15:00:34.960Z,5.71
2022-11-29T15:03:02.832Z,5.70
2022-11-29T15:05:38.488Z,5.71
2022-11-29T15:08:29.226Z,5.58
2022-11-29T15:11:03.376Z,5.67
2022-11-29T15:13:35.942Z,5.73
2022-11-29T15:16:22.840Z,5.68
2022-11-29T15:19:12.256Z,5.69
2022-11-29T15:22:00.909Z,5.63
2022-11-29T15:24:28.924Z,5.60
2022-11-29T15:27:03.999Z,5.56
2022-11-29T15:29:31.827Z,5.47
2022-11-29T15:32:01.510Z,5.43
2022-11-29T15:34:31.755Z,5.45
2022-11-29T15:36:59.973Z,5.42
2022-11-29T15:39:35.882Z,5.45
2022-11-29T15:42:14.027Z,5.45
2022-11-29T15:44:48.252Z,5.45
2022-11-29T15:47:26.383Z,5.44
2022-11-29T15:49:54.492Z,5.41
2022-11-29T15:52:30.370Z,5.40
2022-11-29T15:55:02.498Z,5.45
2022-11-29T15:57:31.152Z,5.42
2022-11-29T16:00:02.662Z,5.40
2022-11-29T16:02:35.335Z,5.44
2022-11-29T16:05:20.481Z,5.45
2022-11-29T16:07:50.045Z,5.43
2022-11-29T16:10:20.764Z,5.40
2022-11-29T16:13:25.948Z,5.41
2022-11-29T16:16:09.018Z,5.44
2022-11-29T16:18:37.026Z,5.42
2022-11-29T16:21:07.007Z,5.34
2022-11-29T16:23:41.483Z,5.36
2022-11-29T16:26:16.358Z,5.42
2022-11-29T16:28:46.007Z,5.42
2022-11-29T16:31:20.857Z,5.39
2022-11-29T16:33:50.307Z,5.34
2022-11-29T16:36:20.908Z,5.43
2022-11-29T16:38:54.356Z,5.38
2022-11-29T16:41:21.352Z,5.40
2022-11-29T16:43:53.860Z,5.34
2022-11-29T16:46:20.595Z,5.21
2022-11-29T16:48:49.157Z,5.18
2022-11-29T16:51:25.853Z,5.16
2022-11-29T16:53:54.275Z,5.22
2022-11-29T16:56:23.800Z,5.16
2022-11-29T16:59:17.052Z,5.21
2022-11-29T17:01:46.858Z,5.23
2022-11-29T17:04:13.552Z,5.24
2022-11-29T17:06:51.007Z,5.23
2022-11-29T17:09:35.859Z,5.24
2022-11-29T17:12:03.307Z,5.26
2022-11-29T17:14:30.361Z,5.21
2022-11-29T17:16:59.898Z,5.21
2022-11-29T17:19:29.259Z,5.20
2022-11-29T17:21:56.032Z,5.26
2022-11-29T17:24:23.512Z,5.32
2022-11-29T17:26:50.848Z,5.36
2022-11-29T17:29:18.463Z,5.38
2022-11-29T17:31:46.423Z,5.40
2022-11-29T17:34:14.001Z,5.34
2022-11-29T17:36:40.798Z,5.37
2022-11-29T17:39:08.455Z,5.32
2022-11-29T17:41:35.241Z,5.29
2022-11-29T17:44:01.955Z,5.27
2022-11-29T17:46:31.544Z,5.32
2022-11-29T17:49:03.015Z,5.23
2022-11-29T17:54:16.884Z,5.09
2022-11-29T17:56:43.469Z,5.15
2022-11-29T17:59:10.157Z,5.14
2022-11-29T18:01:36.938Z,5.18
2022-11-29T18:04:06.308Z,5.16
2022-11-29T18:06:38.303Z,5.08
2022-11-29T18:09:07.511Z,5.04
2022-11-29T18:11:45.224Z,5.04
2022-11-29T18:14:16.109Z,4.99
2022-11-29T18:16:44.946Z,4.93
2022-11-29T18:19:14.080Z,4.96
2022-11-29T18:21:40.708Z,4.99
2022-11-29T18:24:09.480Z,5.01
2022-11-29T18:26:37.631Z,5.04
2022-11-29T18:29:05.694Z,5.06
2022-11-29T18:31:34.535Z,5.10
2022-11-29T18:34:07.291Z,5.14
2022-11-29T18:36:37.414Z,5.07
2022-11-29T18:39:07.411Z,5.09
2022-11-29T18:41:34.358Z,5.06
2022-11-29T18:44:04.296Z,5.03
2022-11-29T18:46:32.405Z,5.08
2022-11-29T18:49:01.122Z,5.08
2022-11-29T18:51:29.517Z,5.09
2022-11-29T18:53:56.759Z,5.13
2022-11-29T18:56:25.778Z,5.15
2022-11-29T18:59:14.817Z,5.09
2022-11-29T19:01:42.689Z,5.05
2022-11-29T19:04:14.964Z,5.06
2022-11-29T19:06:42.450Z,5.08
2022-11-29T19:09:14.475Z,4.96
2022-11-29T19:11:41.547Z,4.92
2022-11-29T19:14:11.689Z,4.89
2022-11-29T19:16:42.584Z,4.89
2022-11-29T19:19:10.670Z,4.80
2022-11-29T19:21:43.099Z,4.79
2022-11-29T19:24:15.640Z,4.74
2022-11-29T19:26:44.932Z,4.80
2022-11-29T19:29:12.806Z,4.82
2022-11-29T19:31:39.494Z,4.81
2022-11-29T19:34:06.661Z,4.83
2022-11-29T19:36:34.603Z,4.84
2022-11-29T19:39:02.630Z,4.87
2022-11-29T19:41:32.043Z,4.83
2022-11-29T19:44:02.425Z,4.82
2022-11-29T19:46:31.700Z,4.80
2022-11-29T19:48:59.567Z,4.78
2022-11-29T19:51:28.416Z,4.78
2022-11-29T19:54:00.082Z,4.77
2022-11-29T19:56:28.134Z,4.80
2022-11-29T19:58:55.297Z,4.84
2022-11-29T20:01:37.761Z,4.81
2022-11-29T20:04:07.537Z,4.67
2022-11-29T20:06:34.814Z,4.66
2022-11-29T20:09:02.685Z,4.73
2022-11-29T20:11:29.711Z,4.77
2022-11-29T20:14:01.948Z,4.75
2022-11-29T20:16:30.541Z,4.74
2022-11-29T20:18:58.192Z,4.79
2022-11-29T20:21:27.527Z,4.78
2022-11-29T20:24:01.591Z,4.76
2022-11-29T20:26:30.430Z,4.73
2022-11-29T20:28:57.009Z,4.71
2022-11-29T20:31:24.019Z,4.70
2022-11-29T20:33:53.252Z,4.73
2022-11-29T20:36:41.761Z,4.79
2022-11-29T20:39:17.199Z,4.78
2022-11-29T20:41:53.065Z,4.76
2022-11-29T20:44:39.785Z,4.72
2022-11-29T20:47:40.376Z,4.73
2022-11-29T20:50:08.298Z,4.70
2022-11-29T20:52:45.507Z,4.79
2022-11-29T20:55:12.317Z,4.77
2022-11-29T20:57:39.165Z,4.74
2022-11-29T21:00:07.827Z,4.79
2022-11-29T21:02:34.437Z,4.76
2022-11-29T21:05:01.884Z,4.78
2022-11-29T21:07:29.216Z,4.80
2022-11-29T21:10:00.895Z,4.80
2022-11-29T21:12:29.442Z,4.77
2022-11-29T21:14:56.699Z,4.70
2022-11-29T21:17:27.559Z,4.71
2022-11-29T21:19:58.735Z,4.77
2022-11-29T21:22:34.421Z,4.72
2022-11-29T21:25:04.202Z,4.70
2022-11-29T21:27:33.326Z,4.68
2022-11-29T21:30:03.254Z,4.64
2022-11-29T21:32:30.135Z,4.63
2022-11-29T21:34:56.774Z,4.51
2022-11-29T21:37:27.619Z,4.58
2022-11-29T21:39:55.473Z,4.60
2022-11-29T21:42:22.049Z,4.60
2022-11-29T21:44:49.487Z,4.60
2022-11-29T21:47:16.720Z,4.55
2022-11-29T21:49:43.388Z,4.54
2022-11-29T21:52:11.831Z,4.41
2022-11-29T21:54:39.045Z,4.32
2022-11-29T21:57:05.767Z,4.23
2022-11-29T21:59:32.369Z,4.18
2022-11-29T22:01:59.917Z,4.14
2022-11-29T22:04:27.062Z,4.12
2022-11-29T22:06:54.284Z,4.25
2022-11-29T22:09:20.910Z,4.26
2022-11-29T22:11:47.938Z,4.25
2022-11-29T22:14:19.212Z,4.11
2022-11-29T22:16:55.993Z,4.21
2022-11-29T22:19:25.574Z,4.26
2022-11-29T22:22:01.475Z,4.26
2022-11-29T22:24:30.940Z,4.26
2022-11-29T22:26:58.426Z,4.31
2022-11-29T22:29:25.286Z,4.31
2022-11-29T22:31:54.086Z,4.32
2022-11-29T22:34:21.637Z,4.31
2022-11-29T22:36:48.817Z,4.32
2022-11-29T22:39:15.473Z,4.24
2022-11-29T22:41:42.401Z,4.24
2022-11-29T22:44:09.684Z,4.10
2022-11-29T22:46:40.239Z,4.07
2022-11-29T22:49:07.364Z,4.07
2022-11-29T22:51:36.543Z,4.13
2022-11-29T22:54:09.235Z,4.12
2022-11-29T22:56:40.907Z,4.21
2022-11-29T22:59:08.225Z,4.14
2022-11-29T23:01:37.113Z,4.14
2022-11-29T23:04:06.141Z,4.00
2022-11-29T23:06:35.664Z,3.99
2022-11-29T23:09:12.041Z,4.05
2022-11-29T23:11:38.709Z,3.97
2022-11-29T23:14:05.410Z,3.93
2022-11-29T23:16:32.926Z,3.75
2022-11-29T23:19:00.582Z,3.78
2022-11-29T23:21:35.244Z,3.85
2022-11-29T23:24:02.400Z,3.81
2022-11-29T23:26:30.678Z,3.77
2022-11-29T23:28:58.599Z,3.77
2022-11-29T23:31:25.709Z,3.76
2022-11-29T23:33:52.468Z,3.88
2022-11-29T23:36:19.198Z,3.83
2022-11-29T23:38:46.250Z,3.80
2022-11-29T23:41:13.178Z,3.79
2022-11-29T23:43:41.179Z,3.81
2022-11-29T23:46:09.588Z,3.80
2022-11-29T23:48:37.309Z,3.69
2022-11-29T23:51:04.219Z,3.82
2022-11-29T23:53:30.830Z,3.80
2022-11-29T23:56:08.573Z,3.72
2022-11-29T23:58:35.441Z,3.70
